createdAt,value
2023-11-06T00:01:36.179Z,94381.00
2023-11-06T00:07:04.501Z,94383.00
2023-11-06T00:12:32.987Z,94376.00
2023-11-06T00:18:01.365Z,94376.00
2023-11-06T00:23:29.606Z,94384.00
2023-11-06T00:28:57.933Z,94399.00
2023-11-06T00:34:26.544Z,94406.00
2023-11-06T00:39:55.327Z,94414.00
2023-11-06T00:45:23.802Z,94414.00
2023-11-06T00:50:52.526Z,94416.00
2023-11-06T00:56:22.159Z,94448.00
2023-11-06T01:01:50.669Z,94453.00
2023-11-06T01:07:18.749Z,94443.00
2023-11-06T01:12:46.908Z,94460.00
2023-11-06T01:18:15.351Z,94452.00
2023-11-06T01:23:43.631Z,94449.00
2023-11-06T01:29:15.064Z,94442.00
2023-11-06T01:34:46.696Z,94470.00
2023-11-06T01:40:15.234Z,94480.00
2023-11-06T01:45:45.734Z,94476.00
2023-11-06T01:51:14.062Z,94483.00
2023-11-06T01:56:42.605Z,94481.00
2023-11-06T02:02:13.048Z,94520.00
2023-11-06T02:07:41.969Z,94521.00
2023-11-06T02:13:10.313Z,94512.00
2023-11-06T02:18:39.792Z,94513.00
2023-11-06T02:24:08.757Z,94508.00
2023-11-06T02:29:37.259Z,94519.00
2023-11-06T02:35:09.305Z,94521.00
2023-11-06T02:40:37.925Z,94520.00
2023-11-06T02:46:06.258Z,94532.00
2023-11-06T02:51:34.525Z,94538.00
2023-11-06T02:57:05.119Z,94549.00
2023-11-06T03:02:34.144Z,94554.00
2023-11-06T03:08:03.137Z,94556.00
2023-11-06T03:13:31.682Z,94554.00
2023-11-06T03:19:00.190Z,94579.00
2023-11-06T03:24:28.527Z,94582.00
2023-11-06T03:29:56.728Z,94591.00
2023-11-06T03:35:24.971Z,94600.00
2023-11-06T03:40:53.389Z,94620.00
2023-11-06T03:46:21.983Z,94611.00
2023-11-06T03:51:50.312Z,94603.00
2023-11-06T03:57:18.539Z,94607.00
2023-11-06T04:02:47.018Z,94610.00
2023-11-06T04:08:15.407Z,94610.00
2023-11-06T04:13:44.317Z,94625.00
2023-11-06T04:19:12.702Z,94612.00
2023-11-06T04:24:40.946Z,94611.00
2023-11-06T04:30:09.874Z,94622.00
2023-11-06T04:35:38.424Z,94613.00
2023-11-06T04:41:06.887Z,94618.00
2023-11-06T04:46:35.132Z,94614.00
2023-11-06T04:52:03.191Z,94621.00
2023-11-06T04:57:31.992Z,94622.00
2023-11-06T05:03:00.243Z,94644.00
2023-11-06T05:08:32.273Z,94641.00
2023-11-06T05:14:00.704Z,94644.00
2023-11-06T05:19:29.032Z,94658.00
2023-11-06T05:24:57.270Z,94661.00
2023-11-06T05:30:25.536Z,94664.00
2023-11-06T05:35:57.347Z,94671.00
2023-11-06T05:41:26.571Z,94688.00
2023-11-06T05:46:54.805Z,94684.00
2023-11-06T05:52:23.102Z,94704.00
2023-11-06T05:57:51.927Z,94721.00
2023-11-06T06:03:22.322Z,94714.00
2023-11-06T06:08:50.708Z,94727.00
2023-11-06T06:14:19.354Z,94724.00
2023-11-06T06:19:47.728Z,94735.00
2023-11-06T06:25:17.028Z,94751.00
2023-11-06T06:30:46.279Z,94758.00
2023-11-06T06:36:14.702Z,94761.00
2023-11-06T06:41:42.981Z,94760.00
2023-11-06T06:47:11.580Z,94767.00
2023-11-06T06:52:39.860Z,94769.00
2023-11-06T06:58:08.610Z,94768.00
2023-11-06T07:03:38.295Z,94768.00
2023-11-06T07:09:06.663Z,94784.00
2023-11-06T07:14:35.038Z,94790.00
2023-11-06T07:20:04.662Z,94796.00
2023-11-06T07:25:32.889Z,94803.00
2023-11-06T07:31:01.242Z,94814.00
2023-11-06T07:36:29.461Z,94815.00
2023-11-06T07:41:57.586Z,94829.00
2023-11-06T07:47:26.499Z,94842.00
2023-11-06T07:52:56.882Z,94844.00
2023-11-06T07:58:25.633Z,94855.00
2023-11-06T08:03:53.965Z,94856.00
2023-11-06T08:09:22.185Z,94871.00
2023-11-06T08:14:51.703Z,94871.00
2023-11-06T08:20:20.022Z,94882.00
2023-11-06T08:25:48.808Z,94891.00
2023-11-06T08:31:18.257Z,94893.00
2023-11-06T08:36:46.858Z,94901.00
2023-11-06T08:42:15.672Z,94895.00
2023-11-06T08:47:45.711Z,94915.00
2023-11-06T08:53:14.129Z,94919.00
2023-11-06T08:58:42.383Z,94921.00
2023-11-06T09:04:11.692Z,94928.00
2023-11-06T09:09:45.545Z,94937.00
2023-11-06T09:15:14.631Z,94935.00
2023-11-06T09:20:48.947Z,94947.00
2023-11-06T09:26:17.648Z,94938.00
2023-11-06T09:31:47.366Z,94956.00
2023-11-06T09:37:15.783Z,94956.00
2023-11-06T09:42:44.335Z,94966.00
2023-11-06T09:48:19.207Z,94971.00
2023-11-06T09:53:54.552Z,94976.00
2023-11-06T09:59:24.410Z,94975.00
2023-11-06T10:04:54.026Z,94973.00
2023-11-06T10:10:29.866Z,94972.00
2023-11-06T10:16:17.167Z,94964.00
2023-11-06T10:21:46.592Z,94968.00
2023-11-06T10:27:32.500Z,94967.00
2023-11-06T10:33:14.589Z,94963.00
2023-11-06T10:38:44.722Z,94957.00
2023-11-06T10:44:14.653Z,94945.00
2023-11-06T10:49:59.442Z,94963.00
2023-11-06T10:55:32.219Z,94950.00
2023-11-06T11:01:10.851Z,94961.00
2023-11-06T11:06:42.410Z,94956.00
2023-11-06T11:12:10.956Z,94937.00
2023-11-06T11:17:39.770Z,94939.00
2023-11-06T11:23:12.146Z,94946.00
2023-11-06T11:29:11.014Z,94957.00
2023-11-06T11:34:40.109Z,94946.00
2023-11-06T11:40:09.762Z,94950.00
2023-11-06T11:45:38.925Z,94953.00
2023-11-06T11:51:06.940Z,94949.00
2023-11-06T11:56:53.949Z,94958.00
2023-11-06T12:02:30.001Z,94951.00
2023-11-06T12:07:59.380Z,94959.00
2023-11-06T12:13:27.827Z,94965.00
2023-11-06T12:18:59.214Z,94951.00
2023-11-06T12:24:28.226Z,94961.00
2023-11-06T12:30:08.170Z,94953.00
2023-11-06T12:35:40.714Z,94961.00
2023-11-06T12:41:09.180Z,94962.00
2023-11-06T12:52:22.886Z,94964.00
2023-11-06T12:57:52.178Z,94963.00
2023-11-06T13:03:20.732Z,94967.00
2023-11-06T13:08:49.333Z,94965.00
2023-11-06T13:14:18.079Z,94966.00
2023-11-06T13:19:48.737Z,94972.00
2023-11-06T13:25:16.891Z,94974.00
2023-11-06T13:30:45.108Z,94983.00
2023-11-06T13:36:14.566Z,94973.00
2023-11-06T13:41:42.951Z,94963.00
2023-11-06T13:47:10.952Z,94981.00
2023-11-06T13:52:44.935Z,94976.00
2023-11-06T13:58:14.960Z,94973.00
2023-11-06T14:03:52.701Z,94972.00
2023-11-06T14:09:39.603Z,94974.00
2023-11-06T14:15:11.099Z,94977.00
2023-11-06T14:20:39.542Z,94973.00
2023-11-06T14:26:10.377Z,94969.00
2023-11-06T14:31:39.344Z,94972.00
2023-11-06T14:37:07.507Z,94973.00
2023-11-06T14:42:35.771Z,94964.00
2023-11-06T14:48:07.674Z,94969.00
2023-11-06T14:53:40.222Z,94975.00
2023-11-06T14:59:09.561Z,94978.00
2023-11-06T15:04:37.942Z,94980.00
2023-11-06T15:10:10.683Z,94982.00
2023-11-06T15:15:39.947Z,94988.00
2023-11-06T15:21:08.162Z,94998.00
2023-11-06T15:26:41.211Z,94986.00
2023-11-06T15:32:09.717Z,94989.00
2023-11-06T15:37:40.345Z,94993.00
2023-11-06T15:43:08.478Z,94982.00
2023-11-06T15:48:39.235Z,94989.00
2023-11-06T15:54:08.282Z,94996.00
2023-11-06T15:59:36.474Z,94991.00
2023-11-06T16:05:05.033Z,95005.00
2023-11-06T16:10:34.470Z,95003.00
2023-11-06T16:16:05.971Z,95004.00
2023-11-06T16:21:34.293Z,95011.00
2023-11-06T16:27:03.595Z,95033.00
2023-11-06T16:32:32.002Z,95041.00
2023-11-06T16:38:00.578Z,95044.00
2023-11-06T16:43:29.899Z,95054.00
2023-11-06T16:48:58.882Z,95060.00
2023-11-06T16:54:30.382Z,95060.00
2023-11-06T16:59:59.416Z,95062.00
2023-11-06T17:05:30.067Z,95066.00
2023-11-06T17:11:02.009Z,95067.00
2023-11-06T17:16:32.254Z,95063.00
2023-11-06T17:22:04.893Z,95074.00
2023-11-06T17:27:33.423Z,95083.00
2023-11-06T17:33:01.909Z,95091.00
2023-11-06T17:38:30.340Z,95088.00
2023-11-06T17:43:59.273Z,95096.00
2023-11-06T17:49:27.660Z,95100.00
2023-11-06T17:54:56.757Z,95104.00
2023-11-06T18:00:25.233Z,95120.00
2023-11-06T18:05:54.331Z,95131.00
2023-11-06T18:11:22.688Z,95124.00
2023-11-06T18:16:51.084Z,95132.00
2023-11-06T18:22:19.949Z,95145.00
2023-11-06T18:27:48.291Z,95151.00
2023-11-06T18:33:17.276Z,95149.00
2023-11-06T18:38:46.050Z,95156.00
2023-11-06T18:44:15.458Z,95161.00
2023-11-06T18:49:43.798Z,95176.00
2023-11-06T18:55:12.743Z,95183.00
2023-11-06T19:00:41.021Z,95190.00
2023-11-06T19:06:23.595Z,95198.00
2023-11-06T19:11:56.200Z,95201.00
2023-11-06T19:17:27.647Z,95226.00
2023-11-06T19:22:56.082Z,95225.00
2023-11-06T19:28:24.493Z,95225.00
2023-11-06T19:33:53.171Z,95224.00
2023-11-06T19:39:21.796Z,95226.00
2023-11-06T19:44:52.737Z,95231.00
2023-11-06T19:50:26.237Z,95248.00
2023-11-06T19:55:54.986Z,95245.00
2023-11-06T20:01:24.307Z,95252.00
2023-11-06T20:06:52.670Z,95248.00
2023-11-06T20:12:21.025Z,95260.00
2023-11-06T20:17:49.931Z,95260.00
2023-11-06T20:23:21.336Z,95262.00
2023-11-06T20:28:50.220Z,95272.00
2023-11-06T20:34:20.448Z,95273.00
2023-11-06T20:39:53.948Z,95293.00
2023-11-06T20:45:25.161Z,95296.00
2023-11-06T20:50:54.099Z,95302.00
2023-11-06T20:56:22.701Z,95307.00
2023-11-06T21:01:51.102Z,95319.00
2023-11-06T21:07:19.036Z,95333.00
2023-11-06T21:12:47.172Z,95344.00
2023-11-06T21:18:17.233Z,95345.00
2023-11-06T21:23:48.308Z,95409.00
2023-11-06T21:29:18.671Z,95393.00
2023-11-06T21:34:51.172Z,95397.00
2023-11-06T21:40:19.760Z,95408.00
2023-11-06T21:45:47.968Z,95423.00
2023-11-06T21:51:17.479Z,95412.00
2023-11-06T21:56:45.651Z,95433.00
2023-11-06T22:02:19.607Z,95432.00
2023-11-06T22:07:50.120Z,95432.00
2023-11-06T22:13:22.812Z,95434.00
2023-11-06T22:18:53.851Z,95439.00
2023-11-06T22:24:33.758Z,95454.00
2023-11-06T22:30:08.086Z,95444.00
2023-11-06T22:35:45.011Z,95448.00
2023-11-06T22:41:13.541Z,95443.00
2023-11-06T22:46:42.204Z,95442.00
2023-11-06T22:52:10.816Z,95459.00
2023-11-06T22:57:40.452Z,95462.00
2023-11-06T23:03:14.180Z,95472.00
2023-11-06T23:08:48.728Z,95471.00
2023-11-06T23:14:29.981Z,95471.00
2023-11-06T23:19:58.331Z,95463.00
2023-11-06T23:25:36.664Z,95463.00
2023-11-06T23:31:07.858Z,95465.00
2023-11-06T23:36:47.858Z,95451.00
2023-11-06T23:42:17.237Z,95462.00
2023-11-06T23:47:47.828Z,95459.00
2023-11-06T23:53:20.360Z,95471.00
2023-11-06T23:58:49.374Z,95473.00
